sensor_id;sensor_type;location;lat;lon;timestamp;pressure;altitude;pressure_sealevel;temperature
79488;BMP180;68949;53.176;18.088;2023-12-22T00:02:24;96080.80;;;
79488;BMP180;68949;53.176;18.088;2023-12-22T00:04:52;96048.80;;;
79488;BMP180;68949;53.176;18.088;2023-12-22T00:07:20;96069.60;;;
79488;BMP180;68949;53.176;18.088;2023-12-22T00:09:47;96074.80;;;
79488;BMP180;68949;53.176;18.088;2023-12-22T00:12:13;96070.60;;;
79488;BMP180;68949;53.176;18.088;2023-12-22T00:14:40;96066.40;;;
79488;BMP180;68949;53.176;18.088;2023-12-22T00:17:08;96064.00;;;
79488;BMP180;68949;53.176;18.088;2023-12-22T00:19:36;96041.00;;;
79488;BMP180;68949;53.176;18.088;2023-12-22T00:22:03;96058.40;;;
79488;BMP180;68949;53.176;18.088;2023-12-22T00:24:32;96057.20;;;
79488;BMP180;68949;53.176;18.088;2023-12-22T00:26:59;96056.80;;;
79488;BMP180;68949;53.176;18.088;2023-12-22T00:29:27;96049.80;;;
79488;BMP180;68949;53.176;18.088;2023-12-22T00:31:55;96066.60;;;
79488;BMP180;68949;53.176;18.088;2023-12-22T00:34:26;96084.80;;;
79488;BMP180;68949;53.176;18.088;2023-12-22T00:36:54;96079.00;;;
79488;BMP180;68949;53.176;18.088;2023-12-22T00:39:23;96081.40;;;
79488;BMP180;68949;53.176;18.088;2023-12-22T00:41:50;96117.80;;;
79488;BMP180;68949;53.176;18.088;2023-12-22T00:44:20;96146.40;;;
79488;BMP180;68949;53.176;18.088;2023-12-22T00:46:48;96180.40;;;
79488;BMP180;68949;53.176;18.088;2023-12-22T00:49:16;96202.60;;;
79488;BMP180;68949;53.176;18.088;2023-12-22T00:51:48;96224.00;;;
79488;BMP180;68949;53.176;18.088;2023-12-22T00:54:14;96239.80;;;
79488;BMP180;68949;53.176;18.088;2023-12-22T00:56:41;96249.60;;;
79488;BMP180;68949;53.176;18.088;2023-12-22T00:59:08;96231.20;;;
79488;BMP180;68949;53.176;18.088;2023-12-22T01:01:36;96238.40;;;
79488;BMP180;68949;53.176;18.088;2023-12-22T01:04:03;96235.20;;;
79488;BMP180;68949;53.176;18.088;2023-12-22T01:06:30;96245.40;;;
79488;BMP180;68949;53.176;18.088;2023-12-22T01:08:57;96234.00;;;
79488;BMP180;68949;53.176;18.088;2023-12-22T01:11:24;96245.40;;;
79488;BMP180;68949;53.176;18.088;2023-12-22T01:13:50;96243.00;;;
79488;BMP180;68949;53.176;18.088;2023-12-22T01:16:18;96244.80;;;
79488;BMP180;68949;53.176;18.088;2023-12-22T01:18:48;96238.20;;;
79488;BMP180;68949;53.176;18.088;2023-12-22T01:21:19;96235.60;;;
79488;BMP180;68949;53.176;18.088;2023-12-22T01:23:45;96233.00;;;
79488;BMP180;68949;53.176;18.088;2023-12-22T01:26:14;96230.40;;;
79488;BMP180;68949;53.176;18.088;2023-12-22T01:28:40;96233.60;;;
79488;BMP180;68949;53.176;18.088;2023-12-22T01:31:07;96233.00;;;
79488;BMP180;68949;53.176;18.088;2023-12-22T01:33:34;96224.00;;;
79488;BMP180;68949;53.176;18.088;2023-12-22T01:36:01;96238.20;;;
79488;BMP180;68949;53.176;18.088;2023-12-22T01:38:29;96236.20;;;
79488;BMP180;68949;53.176;18.088;2023-12-22T01:40:55;96234.40;;;
79488;BMP180;68949;53.176;18.088;2023-12-22T01:43:22;96249.40;;;
79488;BMP180;68949;53.176;18.088;2023-12-22T01:45:55;96244.00;;;
79488;BMP180;68949;53.176;18.088;2023-12-22T01:48:28;96239.80;;;
79488;BMP180;68949;53.176;18.088;2023-12-22T01:50:58;96236.40;;;
79488;BMP180;68949;53.176;18.088;2023-12-22T01:53:27;96250.40;;;
79488;BMP180;68949;53.176;18.088;2023-12-22T01:55:55;96235.60;;;
79488;BMP180;68949;53.176;18.088;2023-12-22T01:58:23;96258.00;;;
79488;BMP180;68949;53.176;18.088;2023-12-22T02:00:53;96253.00;;;
79488;BMP180;68949;53.176;18.088;2023-12-22T02:03:23;96257.00;;;
79488;BMP180;68949;53.176;18.088;2023-12-22T02:05:50;96256.00;;;
79488;BMP180;68949;53.176;18.088;2023-12-22T02:08:18;96264.00;;;
79488;BMP180;68949;53.176;18.088;2023-12-22T02:10:45;96271.60;;;
79488;BMP180;68949;53.176;18.088;2023-12-22T02:13:12;96266.20;;;
79488;BMP180;68949;53.176;18.088;2023-12-22T02:15:39;96262.40;;;
79488;BMP180;68949;53.176;18.088;2023-12-22T02:18:15;96277.00;;;
79488;BMP180;68949;53.176;18.088;2023-12-22T02:20:43;96271.80;;;
79488;BMP180;68949;53.176;18.088;2023-12-22T02:23:11;96273.40;;;
79488;BMP180;68949;53.176;18.088;2023-12-22T02:25:38;96277.00;;;
79488;BMP180;68949;53.176;18.088;2023-12-22T02:28:10;96283.80;;;
79488;BMP180;68949;53.176;18.088;2023-12-22T02:31:05;96276.20;;;
79488;BMP180;68949;53.176;18.088;2023-12-22T02:33:36;96272.60;;;
79488;BMP180;68949;53.176;18.088;2023-12-22T02:36:07;96269.20;;;
79488;BMP180;68949;53.176;18.088;2023-12-22T02:38:36;96274.60;;;
79488;BMP180;68949;53.176;18.088;2023-12-22T02:41:03;96274.60;;;
79488;BMP180;68949;53.176;18.088;2023-12-22T02:43:32;96272.40;;;
79488;BMP180;68949;53.176;18.088;2023-12-22T02:45:59;96274.00;;;
79488;BMP180;68949;53.176;18.088;2023-12-22T02:48:26;96267.80;;;
79488;BMP180;68949;53.176;18.088;2023-12-22T02:50:56;96266.60;;;
79488;BMP180;68949;53.176;18.088;2023-12-22T02:53:24;96278.60;;;
79488;BMP180;68949;53.176;18.088;2023-12-22T02:55:56;96273.20;;;
79488;BMP180;68949;53.176;18.088;2023-12-22T02:58:25;96273.40;;;
79488;BMP180;68949;53.176;18.088;2023-12-22T03:00:52;96272.40;;;
79488;BMP180;68949;53.176;18.088;2023-12-22T03:03:22;96266.20;;;
79488;BMP180;68949;53.176;18.088;2023-12-22T03:05:50;96260.20;;;
79488;BMP180;68949;53.176;18.088;2023-12-22T03:08:18;96265.80;;;
79488;BMP180;68949;53.176;18.088;2023-12-22T03:10:47;96264.20;;;
79488;BMP180;68949;53.176;18.088;2023-12-22T03:13:15;96262.00;;;
79488;BMP180;68949;53.176;18.088;2023-12-22T03:15:44;96261.00;;;
79488;BMP180;68949;53.176;18.088;2023-12-22T03:18:14;96255.00;;;
79488;BMP180;68949;53.176;18.088;2023-12-22T03:20:41;96245.80;;;
79488;BMP180;68949;53.176;18.088;2023-12-22T03:23:08;96236.60;;;
79488;BMP180;68949;53.176;18.088;2023-12-22T03:25:35;96222.60;;;
79488;BMP180;68949;53.176;18.088;2023-12-22T03:28:02;96209.00;;;
79488;BMP180;68949;53.176;18.088;2023-12-22T03:30:30;96226.40;;;
79488;BMP180;68949;53.176;18.088;2023-12-22T03:32:58;96221.40;;;
79488;BMP180;68949;53.176;18.088;2023-12-22T03:35:27;96227.60;;;
79488;BMP180;68949;53.176;18.088;2023-12-22T03:37:57;96234.40;;;
79488;BMP180;68949;53.176;18.088;2023-12-22T03:40:25;96213.80;;;
79488;BMP180;68949;53.176;18.088;2023-12-22T03:42:52;96212.80;;;
79488;BMP180;68949;53.176;18.088;2023-12-22T03:45:18;96223.00;;;
79488;BMP180;68949;53.176;18.088;2023-12-22T03:47:45;96192.60;;;
79488;BMP180;68949;53.176;18.088;2023-12-22T03:50:12;96187.40;;;
79488;BMP180;68949;53.176;18.088;2023-12-22T03:52:38;96194.60;;;
79488;BMP180;68949;53.176;18.088;2023-12-22T03:55:05;96182.00;;;
79488;BMP180;68949;53.176;18.088;2023-12-22T03:57:32;96188.00;;;
79488;BMP180;68949;53.176;18.088;2023-12-22T03:59:59;96181.60;;;
79488;BMP180;68949;53.176;18.088;2023-12-22T04:02:26;96183.20;;;
79488;BMP180;68949;53.176;18.088;2023-12-22T04:04:52;96148.20;;;
79488;BMP180;68949;53.176;18.088;2023-12-22T04:07:19;96182.80;;;
79488;BMP180;68949;53.176;18.088;2023-12-22T04:09:46;96187.20;;;
79488;BMP180;68949;53.176;18.088;2023-12-22T04:12:12;96167.80;;;
79488;BMP180;68949;53.176;18.088;2023-12-22T04:14:39;96126.60;;;
79488;BMP180;68949;53.176;18.088;2023-12-22T04:17:06;96168.60;;;
79488;BMP180;68949;53.176;18.088;2023-12-22T04:19:33;96181.20;;;
79488;BMP180;68949;53.176;18.088;2023-12-22T04:21:59;96174.80;;;
79488;BMP180;68949;53.176;18.088;2023-12-22T04:24:26;96194.60;;;
79488;BMP180;68949;53.176;18.088;2023-12-22T04:26:52;96181.80;;;
79488;BMP180;68949;53.176;18.088;2023-12-22T04:29:19;96169.20;;;
79488;BMP180;68949;53.176;18.088;2023-12-22T04:31:46;96175.40;;;
79488;BMP180;68949;53.176;18.088;2023-12-22T04:34:13;96169.80;;;
79488;BMP180;68949;53.176;18.088;2023-12-22T04:36:42;96131.80;;;
79488;BMP180;68949;53.176;18.088;2023-12-22T04:39:09;96142.00;;;
79488;BMP180;68949;53.176;18.088;2023-12-22T04:41:36;96139.60;;;
79488;BMP180;68949;53.176;18.088;2023-12-22T04:44:02;96158.40;;;
79488;BMP180;68949;53.176;18.088;2023-12-22T04:46:29;96168.00;;;
79488;BMP180;68949;53.176;18.088;2023-12-22T04:48:57;96150.20;;;
79488;BMP180;68949;53.176;18.088;2023-12-22T04:51:23;96166.40;;;
79488;BMP180;68949;53.176;18.088;2023-12-22T04:53:51;96147.40;;;
79488;BMP180;68949;53.176;18.088;2023-12-22T04:56:17;96175.00;;;
79488;BMP180;68949;53.176;18.088;2023-12-22T04:58:44;96167.20;;;
79488;BMP180;68949;53.176;18.088;2023-12-22T05:01:10;96177.60;;;
79488;BMP180;68949;53.176;18.088;2023-12-22T05:03:37;96200.60;;;
79488;BMP180;68949;53.176;18.088;2023-12-22T05:06:05;96202.40;;;
79488;BMP180;68949;53.176;18.088;2023-12-22T05:08:31;96185.80;;;
79488;BMP180;68949;53.176;18.088;2023-12-22T05:10:58;96205.40;;;
79488;BMP180;68949;53.176;18.088;2023-12-22T05:13:25;96202.40;;;
79488;BMP180;68949;53.176;18.088;2023-12-22T05:15:52;96209.40;;;
79488;BMP180;68949;53.176;18.088;2023-12-22T05:18:18;96185.60;;;
79488;BMP180;68949;53.176;18.088;2023-12-22T05:20:45;96184.60;;;
79488;BMP180;68949;53.176;18.088;2023-12-22T05:23:12;96167.80;;;
79488;BMP180;68949;53.176;18.088;2023-12-22T05:25:38;96158.20;;;
79488;BMP180;68949;53.176;18.088;2023-12-22T05:28:07;96160.80;;;
79488;BMP180;68949;53.176;18.088;2023-12-22T05:30:37;96132.80;;;
79488;BMP180;68949;53.176;18.088;2023-12-22T05:33:05;96122.60;;;
79488;BMP180;68949;53.176;18.088;2023-12-22T05:35:34;96118.00;;;
79488;BMP180;68949;53.176;18.088;2023-12-22T05:38:01;96118.00;;;
79488;BMP180;68949;53.176;18.088;2023-12-22T05:40:31;96151.40;;;
79488;BMP180;68949;53.176;18.088;2023-12-22T05:42:58;96149.40;;;
79488;BMP180;68949;53.176;18.088;2023-12-22T05:45:27;96152.40;;;
79488;BMP180;68949;53.176;18.088;2023-12-22T05:47:58;96135.80;;;
79488;BMP180;68949;53.176;18.088;2023-12-22T05:50:25;96143.40;;;
79488;BMP180;68949;53.176;18.088;2023-12-22T05:52:53;96128.80;;;
79488;BMP180;68949;53.176;18.088;2023-12-22T05:55:20;96140.40;;;
79488;BMP180;68949;53.176;18.088;2023-12-22T05:57:47;96141.40;;;
79488;BMP180;68949;53.176;18.088;2023-12-22T06:00:15;96137.80;;;
79488;BMP180;68949;53.176;18.088;2023-12-22T06:02:42;96157.20;;;
79488;BMP180;68949;53.176;18.088;2023-12-22T06:05:09;96172.80;;;
79488;BMP180;68949;53.176;18.088;2023-12-22T06:07:40;96162.00;;;
79488;BMP180;68949;53.176;18.088;2023-12-22T06:10:08;96167.60;;;
79488;BMP180;68949;53.176;18.088;2023-12-22T06:12:37;96168.40;;;
79488;BMP180;68949;53.176;18.088;2023-12-22T06:15:05;96179.00;;;
79488;BMP180;68949;53.176;18.088;2023-12-22T06:17:32;96186.40;;;
79488;BMP180;68949;53.176;18.088;2023-12-22T06:20:04;96194.00;;;
79488;BMP180;68949;53.176;18.088;2023-12-22T06:22:36;96190.80;;;
79488;BMP180;68949;53.176;18.088;2023-12-22T06:25:05;96209.80;;;
79488;BMP180;68949;53.176;18.088;2023-12-22T06:27:34;96212.80;;;
79488;BMP180;68949;53.176;18.088;2023-12-22T06:30:01;96218.00;;;
79488;BMP180;68949;53.176;18.088;2023-12-22T06:32:28;96214.00;;;
79488;BMP180;68949;53.176;18.088;2023-12-22T06:34:54;96220.60;;;
79488;BMP180;68949;53.176;18.088;2023-12-22T06:37:21;96222.00;;;
79488;BMP180;68949;53.176;18.088;2023-12-22T06:39:48;96228.40;;;
79488;BMP180;68949;53.176;18.088;2023-12-22T06:42:14;96237.80;;;
79488;BMP180;68949;53.176;18.088;2023-12-22T06:44:42;96259.40;;;
79488;BMP180;68949;53.176;18.088;2023-12-22T06:47:10;96275.20;;;
79488;BMP180;68949;53.176;18.088;2023-12-22T06:49:36;96275.00;;;
79488;BMP180;68949;53.176;18.088;2023-12-22T06:52:03;96294.60;;;
79488;BMP180;68949;53.176;18.088;2023-12-22T06:54:32;96324.40;;;
79488;BMP180;68949;53.176;18.088;2023-12-22T06:56:59;96333.00;;;
79488;BMP180;68949;53.176;18.088;2023-12-22T06:59:25;96329.80;;;
79488;BMP180;68949;53.176;18.088;2023-12-22T07:01:52;96326.80;;;
79488;BMP180;68949;53.176;18.088;2023-12-22T07:04:19;96330.20;;;
79488;BMP180;68949;53.176;18.088;2023-12-22T07:06:45;96331.20;;;
79488;BMP180;68949;53.176;18.088;2023-12-22T07:11:47;96341.40;;;
79488;BMP180;68949;53.176;18.088;2023-12-22T07:14:14;96339.80;;;
79488;BMP180;68949;53.176;18.088;2023-12-22T07:16:42;96325.60;;;
79488;BMP180;68949;53.176;18.088;2023-12-22T07:19:10;96316.00;;;
79488;BMP180;68949;53.176;18.088;2023-12-22T07:21:41;96302.40;;;
79488;BMP180;68949;53.176;18.088;2023-12-22T07:24:08;96287.60;;;
79488;BMP180;68949;53.176;18.088;2023-12-22T07:26:35;96271.20;;;
79488;BMP180;68949;53.176;18.088;2023-12-22T07:29:01;96255.20;;;
79488;BMP180;68949;53.176;18.088;2023-12-22T07:31:28;96239.00;;;
79488;BMP180;68949;53.176;18.088;2023-12-22T07:33:55;96225.40;;;
79488;BMP180;68949;53.176;18.088;2023-12-22T07:36:21;96244.00;;;
79488;BMP180;68949;53.176;18.088;2023-12-22T07:38:48;96244.00;;;
79488;BMP180;68949;53.176;18.088;2023-12-22T07:41:15;96249.60;;;
79488;BMP180;68949;53.176;18.088;2023-12-22T07:43:41;96202.00;;;
79488;BMP180;68949;53.176;18.088;2023-12-22T07:46:17;96210.00;;;
79488;BMP180;68949;53.176;18.088;2023-12-22T07:48:44;96217.40;;;
79488;BMP180;68949;53.176;18.088;2023-12-22T07:51:31;96199.60;;;
79488;BMP180;68949;53.176;18.088;2023-12-22T07:53:58;96184.80;;;
79488;BMP180;68949;53.176;18.088;2023-12-22T07:56:24;96186.80;;;
79488;BMP180;68949;53.176;18.088;2023-12-22T07:58:51;96190.40;;;
79488;BMP180;68949;53.176;18.088;2023-12-22T08:01:21;96200.40;;;
79488;BMP180;68949;53.176;18.088;2023-12-22T08:03:48;96187.00;;;
79488;BMP180;68949;53.176;18.088;2023-12-22T08:06:15;96187.60;;;
79488;BMP180;68949;53.176;18.088;2023-12-22T08:08:41;96196.20;;;
79488;BMP180;68949;53.176;18.088;2023-12-22T08:11:11;96198.00;;;
79488;BMP180;68949;53.176;18.088;2023-12-22T08:13:38;96219.40;;;
79488;BMP180;68949;53.176;18.088;2023-12-22T08:16:05;96192.40;;;
79488;BMP180;68949;53.176;18.088;2023-12-22T08:18:33;96213.00;;;
79488;BMP180;68949;53.176;18.088;2023-12-22T08:21:07;96206.20;;;
79488;BMP180;68949;53.176;18.088;2023-12-22T08:23:35;96227.40;;;
79488;BMP180;68949;53.176;18.088;2023-12-22T08:26:02;96220.20;;;
79488;BMP180;68949;53.176;18.088;2023-12-22T08:28:30;96229.60;;;
79488;BMP180;68949;53.176;18.088;2023-12-22T08:30:58;96232.20;;;
79488;BMP180;68949;53.176;18.088;2023-12-22T08:33:25;96230.20;;;
79488;BMP180;68949;53.176;18.088;2023-12-22T08:35:53;96252.00;;;
79488;BMP180;68949;53.176;18.088;2023-12-22T08:38:20;96275.20;;;
79488;BMP180;68949;53.176;18.088;2023-12-22T08:40:54;96297.60;;;
79488;BMP180;68949;53.176;18.088;2023-12-22T08:43:21;96312.80;;;
79488;BMP180;68949;53.176;18.088;2023-12-22T08:45:49;96323.00;;;
79488;BMP180;68949;53.176;18.088;2023-12-22T08:48:18;96315.00;;;
79488;BMP180;68949;53.176;18.088;2023-12-22T08:50:45;96312.60;;;
79488;BMP180;68949;53.176;18.088;2023-12-22T08:53:12;96320.80;;;
79488;BMP180;68949;53.176;18.088;2023-12-22T08:55:38;96325.20;;;
79488;BMP180;68949;53.176;18.088;2023-12-22T08:58:05;96320.40;;;
79488;BMP180;68949;53.176;18.088;2023-12-22T09:00:32;96337.00;;;
79488;BMP180;68949;53.176;18.088;2023-12-22T09:03:00;96334.40;;;
79488;BMP180;68949;53.176;18.088;2023-12-22T09:05:27;96334.40;;;
79488;BMP180;68949;53.176;18.088;2023-12-22T09:07:54;96327.60;;;
79488;BMP180;68949;53.176;18.088;2023-12-22T09:10:21;96342.60;;;
79488;BMP180;68949;53.176;18.088;2023-12-22T09:12:47;96332.60;;;
79488;BMP180;68949;53.176;18.088;2023-12-22T09:15:14;96344.00;;;
79488;BMP180;68949;53.176;18.088;2023-12-22T09:17:42;96337.20;;;
79488;BMP180;68949;53.176;18.088;2023-12-22T09:20:10;96341.60;;;
79488;BMP180;68949;53.176;18.088;2023-12-22T09:22:37;96338.60;;;
79488;BMP180;68949;53.176;18.088;2023-12-22T09:25:06;96333.40;;;
79488;BMP180;68949;53.176;18.088;2023-12-22T09:27:36;96318.20;;;
79488;BMP180;68949;53.176;18.088;2023-12-22T09:30:04;96313.40;;;
79488;BMP180;68949;53.176;18.088;2023-12-22T09:32:33;96295.40;;;
79488;BMP180;68949;53.176;18.088;2023-12-22T09:35:01;96305.00;;;
79488;BMP180;68949;53.176;18.088;2023-12-22T09:37:28;96299.60;;;
79488;BMP180;68949;53.176;18.088;2023-12-22T09:39:56;96301.00;;;
79488;BMP180;68949;53.176;18.088;2023-12-22T09:42:25;96298.40;;;
79488;BMP180;68949;53.176;18.088;2023-12-22T09:44:55;96295.40;;;
79488;BMP180;68949;53.176;18.088;2023-12-22T09:47:25;96308.00;;;
79488;BMP180;68949;53.176;18.088;2023-12-22T09:49:54;96313.80;;;
79488;BMP180;68949;53.176;18.088;2023-12-22T09:52:23;96312.20;;;
79488;BMP180;68949;53.176;18.088;2023-12-22T09:54:53;96323.60;;;
79488;BMP180;68949;53.176;18.088;2023-12-22T09:57:24;96329.60;;;
79488;BMP180;68949;53.176;18.088;2023-12-22T09:59:53;96335.20;;;
79488;BMP180;68949;53.176;18.088;2023-12-22T10:02:22;96339.80;;;
79488;BMP180;68949;53.176;18.088;2023-12-22T10:04:50;96353.60;;;
79488;BMP180;68949;53.176;18.088;2023-12-22T10:07:17;96351.00;;;
79488;BMP180;68949;53.176;18.088;2023-12-22T10:09:47;96358.40;;;
79488;BMP180;68949;53.176;18.088;2023-12-22T10:12:17;96358.40;;;
79488;BMP180;68949;53.176;18.088;2023-12-22T10:14:47;96363.40;;;
79488;BMP180;68949;53.176;18.088;2023-12-22T10:17:18;96360.80;;;
79488;BMP180;68949;53.176;18.088;2023-12-22T10:19:45;96371.60;;;
79488;BMP180;68949;53.176;18.088;2023-12-22T10:22:14;96366.80;;;
79488;BMP180;68949;53.176;18.088;2023-12-22T10:24:44;96367.20;;;
79488;BMP180;68949;53.176;18.088;2023-12-22T10:27:17;96359.40;;;
79488;BMP180;68949;53.176;18.088;2023-12-22T10:29:56;96362.20;;;
79488;BMP180;68949;53.176;18.088;2023-12-22T10:32:23;96357.80;;;
79488;BMP180;68949;53.176;18.088;2023-12-22T10:34:53;96358.00;;;
79488;BMP180;68949;53.176;18.088;2023-12-22T10:37:21;96362.60;;;
79488;BMP180;68949;53.176;18.088;2023-12-22T10:39:53;96361.00;;;
79488;BMP180;68949;53.176;18.088;2023-12-22T10:42:22;96353.80;;;
79488;BMP180;68949;53.176;18.088;2023-12-22T10:44:48;96354.60;;;
79488;BMP180;68949;53.176;18.088;2023-12-22T10:47:18;96365.60;;;
79488;BMP180;68949;53.176;18.088;2023-12-22T10:49:49;96367.20;;;
79488;BMP180;68949;53.176;18.088;2023-12-22T10:52:18;96361.20;;;
79488;BMP180;68949;53.176;18.088;2023-12-22T10:54:45;96351.80;;;
79488;BMP180;68949;53.176;18.088;2023-12-22T10:57:12;96351.80;;;
79488;BMP180;68949;53.176;18.088;2023-12-22T10:59:46;96350.40;;;
79488;BMP180;68949;53.176;18.088;2023-12-22T11:02:19;96337.20;;;
79488;BMP180;68949;53.176;18.088;2023-12-22T11:05:02;96346.00;;;
79488;BMP180;68949;53.176;18.088;2023-12-22T11:07:35;96335.60;;;
79488;BMP180;68949;53.176;18.088;2023-12-22T11:10:07;96329.40;;;
79488;BMP180;68949;53.176;18.088;2023-12-22T11:12:39;96334.40;;;
79488;BMP180;68949;53.176;18.088;2023-12-22T11:15:10;96323.80;;;
79488;BMP180;68949;53.176;18.088;2023-12-22T11:17:42;96336.00;;;
79488;BMP180;68949;53.176;18.088;2023-12-22T11:20:09;96329.80;;;
79488;BMP180;68949;53.176;18.088;2023-12-22T11:22:38;96331.80;;;
79488;BMP180;68949;53.176;18.088;2023-12-22T11:25:08;96329.40;;;
79488;BMP180;68949;53.176;18.088;2023-12-22T11:27:37;96333.00;;;
79488;BMP180;68949;53.176;18.088;2023-12-22T11:30:08;96342.80;;;
79488;BMP180;68949;53.176;18.088;2023-12-22T11:32:35;96341.00;;;
79488;BMP180;68949;53.176;18.088;2023-12-22T11:35:04;96331.20;;;
79488;BMP180;68949;53.176;18.088;2023-12-22T11:37:35;96339.40;;;
79488;BMP180;68949;53.176;18.088;2023-12-22T11:40:03;96347.00;;;
79488;BMP180;68949;53.176;18.088;2023-12-22T11:42:37;96360.60;;;
79488;BMP180;68949;53.176;18.088;2023-12-22T11:45:06;96349.60;;;
79488;BMP180;68949;53.176;18.088;2023-12-22T11:47:38;96353.80;;;
79488;BMP180;68949;53.176;18.088;2023-12-22T11:50:10;96357.40;;;
79488;BMP180;68949;53.176;18.088;2023-12-22T11:52:38;96355.80;;;
79488;BMP180;68949;53.176;18.088;2023-12-22T11:55:06;96357.40;;;
79488;BMP180;68949;53.176;18.088;2023-12-22T11:57:36;96354.80;;;
79488;BMP180;68949;53.176;18.088;2023-12-22T12:00:37;96359.80;;;
79488;BMP180;68949;53.176;18.088;2023-12-22T12:03:06;96366.40;;;
79488;BMP180;68949;53.176;18.088;2023-12-22T12:05:33;96363.20;;;
79488;BMP180;68949;53.176;18.088;2023-12-22T12:08:08;96377.60;;;
79488;BMP180;68949;53.176;18.088;2023-12-22T12:10:50;96374.20;;;
79488;BMP180;68949;53.176;18.088;2023-12-22T12:13:23;96373.80;;;
79488;BMP180;68949;53.176;18.088;2023-12-22T12:15:52;96376.40;;;
79488;BMP180;68949;53.176;18.088;2023-12-22T12:18:23;96391.20;;;
79488;BMP180;68949;53.176;18.088;2023-12-22T12:20:55;96383.00;;;
79488;BMP180;68949;53.176;18.088;2023-12-22T12:23:24;96389.40;;;
79488;BMP180;68949;53.176;18.088;2023-12-22T12:25:51;96385.60;;;
79488;BMP180;68949;53.176;18.088;2023-12-22T12:28:26;96392.20;;;
79488;BMP180;68949;53.176;18.088;2023-12-22T12:31:04;96382.00;;;
79488;BMP180;68949;53.176;18.088;2023-12-22T12:33:35;96390.20;;;
79488;BMP180;68949;53.176;18.088;2023-12-22T12:36:03;96388.80;;;
79488;BMP180;68949;53.176;18.088;2023-12-22T12:39:12;96378.80;;;
79488;BMP180;68949;53.176;18.088;2023-12-22T12:41:53;96377.60;;;
79488;BMP180;68949;53.176;18.088;2023-12-22T12:44:25;96377.20;;;
79488;BMP180;68949;53.176;18.088;2023-12-22T12:46:52;96380.00;;;
79488;BMP180;68949;53.176;18.088;2023-12-22T12:49:19;96378.00;;;
79488;BMP180;68949;53.176;18.088;2023-12-22T12:51:49;96380.60;;;
79488;BMP180;68949;53.176;18.088;2023-12-22T12:54:16;96382.40;;;
79488;BMP180;68949;53.176;18.088;2023-12-22T12:56:46;96381.20;;;
79488;BMP180;68949;53.176;18.088;2023-12-22T12:59:15;96379.80;;;
79488;BMP180;68949;53.176;18.088;2023-12-22T13:01:46;96378.40;;;
79488;BMP180;68949;53.176;18.088;2023-12-22T13:04:13;96380.80;;;
79488;BMP180;68949;53.176;18.088;2023-12-22T13:06:50;96387.00;;;
79488;BMP180;68949;53.176;18.088;2023-12-22T13:09:21;96387.20;;;
79488;BMP180;68949;53.176;18.088;2023-12-22T13:11:50;96387.20;;;
79488;BMP180;68949;53.176;18.088;2023-12-22T13:14:24;96396.60;;;
79488;BMP180;68949;53.176;18.088;2023-12-22T13:16:55;96396.40;;;
79488;BMP180;68949;53.176;18.088;2023-12-22T13:19:29;96401.00;;;
79488;BMP180;68949;53.176;18.088;2023-12-22T13:21:56;96409.20;;;
79488;BMP180;68949;53.176;18.088;2023-12-22T13:24:25;96421.60;;;
79488;BMP180;68949;53.176;18.088;2023-12-22T13:27:03;96410.80;;;
79488;BMP180;68949;53.176;18.088;2023-12-22T13:29:43;96420.40;;;
79488;BMP180;68949;53.176;18.088;2023-12-22T13:32:17;96420.00;;;
79488;BMP180;68949;53.176;18.088;2023-12-22T13:34:50;96430.00;;;
79488;BMP180;68949;53.176;18.088;2023-12-22T13:37:19;96427.40;;;
79488;BMP180;68949;53.176;18.088;2023-12-22T13:39:48;96437.60;;;
79488;BMP180;68949;53.176;18.088;2023-12-22T13:42:18;96443.20;;;
79488;BMP180;68949;53.176;18.088;2023-12-22T13:44:50;96450.80;;;
79488;BMP180;68949;53.176;18.088;2023-12-22T13:47:21;96450.80;;;
79488;BMP180;68949;53.176;18.088;2023-12-22T13:49:49;96457.40;;;
79488;BMP180;68949;53.176;18.088;2023-12-22T13:52:32;96456.60;;;
79488;BMP180;68949;53.176;18.088;2023-12-22T13:55:02;96465.00;;;
79488;BMP180;68949;53.176;18.088;2023-12-22T13:57:35;96469.20;;;
79488;BMP180;68949;53.176;18.088;2023-12-22T14:00:27;96467.20;;;
79488;BMP180;68949;53.176;18.088;2023-12-22T14:02:55;96481.80;;;
79488;BMP180;68949;53.176;18.088;2023-12-22T14:05:24;96483.80;;;
79488;BMP180;68949;53.176;18.088;2023-12-22T14:07:51;96489.40;;;
79488;BMP180;68949;53.176;18.088;2023-12-22T14:10:22;96492.00;;;
79488;BMP180;68949;53.176;18.088;2023-12-22T14:12:49;96494.20;;;
79488;BMP180;68949;53.176;18.088;2023-12-22T14:15:16;96489.80;;;
79488;BMP180;68949;53.176;18.088;2023-12-22T14:17:42;96493.00;;;
79488;BMP180;68949;53.176;18.088;2023-12-22T14:20:09;96507.60;;;
79488;BMP180;68949;53.176;18.088;2023-12-22T14:22:36;96502.60;;;
79488;BMP180;68949;53.176;18.088;2023-12-22T14:25:05;96509.80;;;
79488;BMP180;68949;53.176;18.088;2023-12-22T14:27:32;96520.00;;;
79488;BMP180;68949;53.176;18.088;2023-12-22T14:29:58;96525.80;;;
79488;BMP180;68949;53.176;18.088;2023-12-22T14:32:25;96523.80;;;
79488;BMP180;68949;53.176;18.088;2023-12-22T14:34:52;96534.00;;;
79488;BMP180;68949;53.176;18.088;2023-12-22T14:37:19;96539.80;;;
79488;BMP180;68949;53.176;18.088;2023-12-22T14:39:47;96545.20;;;
79488;BMP180;68949;53.176;18.088;2023-12-22T14:42:14;96548.00;;;
79488;BMP180;68949;53.176;18.088;2023-12-22T14:44:41;96553.60;;;
79488;BMP180;68949;53.176;18.088;2023-12-22T14:47:08;96559.80;;;
79488;BMP180;68949;53.176;18.088;2023-12-22T14:49:34;96564.40;;;
79488;BMP180;68949;53.176;18.088;2023-12-22T14:52:01;96563.20;;;
79488;BMP180;68949;53.176;18.088;2023-12-22T14:54:30;96564.60;;;
79488;BMP180;68949;53.176;18.088;2023-12-22T14:56:58;96558.60;;;
79488;BMP180;68949;53.176;18.088;2023-12-22T14:59:26;96564.40;;;
79488;BMP180;68949;53.176;18.088;2023-12-22T15:01:53;96575.80;;;
79488;BMP180;68949;53.176;18.088;2023-12-22T15:04:20;96580.20;;;
79488;BMP180;68949;53.176;18.088;2023-12-22T15:06:47;96573.40;;;
79488;BMP180;68949;53.176;18.088;2023-12-22T15:09:13;96580.00;;;
79488;BMP180;68949;53.176;18.088;2023-12-22T15:11:44;96578.00;;;
79488;BMP180;68949;53.176;18.088;2023-12-22T15:14:12;96576.00;;;